sensor_id;sensor_type;location;lat;lon;timestamp;P1;durP1;ratioP1;P2;durP2;ratioP2
1404;SDS011;697;51.114;6.542;2023-07-13T00:01:26;3.30;;;1.50;;
1404;SDS011;697;51.114;6.542;2023-07-13T00:03:54;7.20;;;1.40;;
1404;SDS011;697;51.114;6.542;2023-07-13T00:06:20;4.73;;;1.20;;
1404;SDS011;697;51.114;6.542;2023-07-13T00:08:47;6.30;;;1.80;;
1404;SDS011;697;51.114;6.542;2023-07-13T00:11:15;7.57;;;2.00;;
1404;SDS011;697;51.114;6.542;2023-07-13T00:13:42;5.80;;;1.50;;
1404;SDS011;697;51.114;6.542;2023-07-13T00:16:10;3.27;;;1.80;;
1404;SDS011;697;51.114;6.542;2023-07-13T00:18:38;3.10;;;1.90;;
1404;SDS011;697;51.114;6.542;2023-07-13T00:21:07;4.83;;;1.30;;
1404;SDS011;697;51.114;6.542;2023-07-13T00:23:34;3.23;;;1.20;;
1404;SDS011;697;51.114;6.542;2023-07-13T00:26:02;6.77;;;1.40;;
1404;SDS011;697;51.114;6.542;2023-07-13T00:28:30;10.20;;;1.33;;
1404;SDS011;697;51.114;6.542;2023-07-13T00:30:57;7.67;;;1.57;;
1404;SDS011;697;51.114;6.542;2023-07-13T00:33:24;5.00;;;1.33;;
1404;SDS011;697;51.114;6.542;2023-07-13T00:35:53;9.53;;;2.10;;
1404;SDS011;697;51.114;6.542;2023-07-13T00:38:21;5.10;;;1.37;;
1404;SDS011;697;51.114;6.542;2023-07-13T00:40:49;7.10;;;2.30;;
1404;SDS011;697;51.114;6.542;2023-07-13T00:43:16;12.23;;;1.90;;
1404;SDS011;697;51.114;6.542;2023-07-13T00:46:10;4.23;;;1.37;;
1404;SDS011;697;51.114;6.542;2023-07-13T00:48:41;8.37;;;1.63;;
1404;SDS011;697;51.114;6.542;2023-07-13T00:51:09;7.43;;;1.63;;
1404;SDS011;697;51.114;6.542;2023-07-13T00:53:39;9.60;;;1.80;;
1404;SDS011;697;51.114;6.542;2023-07-13T00:56:06;5.77;;;1.30;;
1404;SDS011;697;51.114;6.542;2023-07-13T00:58:33;4.87;;;1.83;;
1404;SDS011;697;51.114;6.542;2023-07-13T01:01:00;6.33;;;1.57;;
1404;SDS011;697;51.114;6.542;2023-07-13T01:03:27;12.37;;;1.43;;
1404;SDS011;697;51.114;6.542;2023-07-13T01:05:54;4.87;;;1.70;;
1404;SDS011;697;51.114;6.542;2023-07-13T01:08:21;7.20;;;1.50;;
1404;SDS011;697;51.114;6.542;2023-07-13T01:10:53;5.70;;;2.10;;
1404;SDS011;697;51.114;6.542;2023-07-13T01:13:21;6.40;;;1.57;;
1404;SDS011;697;51.114;6.542;2023-07-13T01:15:48;4.10;;;1.23;;
1404;SDS011;697;51.114;6.542;2023-07-13T01:18:17;5.03;;;1.73;;
1404;SDS011;697;51.114;6.542;2023-07-13T01:20:50;5.53;;;1.60;;
1404;SDS011;697;51.114;6.542;2023-07-13T01:23:17;4.03;;;1.13;;
1404;SDS011;697;51.114;6.542;2023-07-13T01:25:45;7.67;;;1.73;;
1404;SDS011;697;51.114;6.542;2023-07-13T01:28:12;8.40;;;1.60;;
1404;SDS011;697;51.114;6.542;2023-07-13T01:30:39;7.53;;;1.87;;
1404;SDS011;697;51.114;6.542;2023-07-13T01:33:06;13.57;;;1.90;;
1404;SDS011;697;51.114;6.542;2023-07-13T01:35:34;9.97;;;1.83;;
1404;SDS011;697;51.114;6.542;2023-07-13T01:38:03;6.27;;;1.63;;
1404;SDS011;697;51.114;6.542;2023-07-13T01:40:30;8.40;;;1.60;;
1404;SDS011;697;51.114;6.542;2023-07-13T01:42:58;5.87;;;1.70;;
1404;SDS011;697;51.114;6.542;2023-07-13T01:45:25;12.77;;;1.80;;
1404;SDS011;697;51.114;6.542;2023-07-13T01:47:51;6.60;;;2.10;;
1404;SDS011;697;51.114;6.542;2023-07-13T01:50:18;9.83;;;2.00;;
1404;SDS011;697;51.114;6.542;2023-07-13T01:52:45;9.73;;;1.80;;
1404;SDS011;697;51.114;6.542;2023-07-13T01:55:13;5.83;;;1.63;;
1404;SDS011;697;51.114;6.542;2023-07-13T01:57:39;9.27;;;1.57;;
1404;SDS011;697;51.114;6.542;2023-07-13T02:00:08;12.87;;;1.87;;
1404;SDS011;697;51.114;6.542;2023-07-13T02:02:36;9.60;;;1.80;;
1404;SDS011;697;51.114;6.542;2023-07-13T02:05:03;5.23;;;1.70;;
1404;SDS011;697;51.114;6.542;2023-07-13T02:07:30;10.80;;;2.00;;
1404;SDS011;697;51.114;6.542;2023-07-13T02:09:56;7.63;;;1.67;;
1404;SDS011;697;51.114;6.542;2023-07-13T02:12:24;6.60;;;1.97;;
1404;SDS011;697;51.114;6.542;2023-07-13T02:14:51;5.87;;;1.50;;
1404;SDS011;697;51.114;6.542;2023-07-13T02:17:18;8.70;;;3.23;;
1404;SDS011;697;51.114;6.542;2023-07-13T02:19:45;6.43;;;1.53;;
1404;SDS011;697;51.114;6.542;2023-07-13T02:22:11;6.70;;;1.60;;
1404;SDS011;697;51.114;6.542;2023-07-13T02:24:39;3.13;;;1.80;;
1404;SDS011;697;51.114;6.542;2023-07-13T02:27:06;3.87;;;1.40;;
1404;SDS011;697;51.114;6.542;2023-07-13T02:29:34;4.67;;;1.10;;
1404;SDS011;697;51.114;6.542;2023-07-13T02:32:00;6.70;;;1.60;;
1404;SDS011;697;51.114;6.542;2023-07-13T02:34:28;3.97;;;1.50;;
1404;SDS011;697;51.114;6.542;2023-07-13T02:36:56;4.03;;;1.50;;
1404;SDS011;697;51.114;6.542;2023-07-13T02:39:22;6.13;;;1.70;;
1404;SDS011;697;51.114;6.542;2023-07-13T02:41:49;5.90;;;2.20;;
1404;SDS011;697;51.114;6.542;2023-07-13T02:44:16;13.60;;;1.87;;
1404;SDS011;697;51.114;6.542;2023-07-13T02:46:44;3.13;;;1.77;;
1404;SDS011;697;51.114;6.542;2023-07-13T02:49:10;4.73;;;1.60;;
1404;SDS011;697;51.114;6.542;2023-07-13T02:51:37;4.30;;;1.70;;
1404;SDS011;697;51.114;6.542;2023-07-13T02:54:04;7.63;;;2.50;;
1404;SDS011;697;51.114;6.542;2023-07-13T02:56:33;10.53;;;2.03;;
1404;SDS011;697;51.114;6.542;2023-07-13T02:59:00;5.23;;;1.60;;
1404;SDS011;697;51.114;6.542;2023-07-13T03:01:27;11.20;;;1.67;;
1404;SDS011;697;51.114;6.542;2023-07-13T03:03:55;10.80;;;2.07;;
1404;SDS011;697;51.114;6.542;2023-07-13T03:06:22;6.23;;;1.60;;
1404;SDS011;697;51.114;6.542;2023-07-13T03:08:49;5.37;;;1.93;;
1404;SDS011;697;51.114;6.542;2023-07-13T03:11:17;9.93;;;1.73;;
1404;SDS011;697;51.114;6.542;2023-07-13T03:13:45;6.57;;;2.10;;
1404;SDS011;697;51.114;6.542;2023-07-13T03:16:12;10.20;;;1.50;;
1404;SDS011;697;51.114;6.542;2023-07-13T03:18:40;9.43;;;1.90;;
1404;SDS011;697;51.114;6.542;2023-07-13T03:21:09;6.60;;;1.77;;
1404;SDS011;697;51.114;6.542;2023-07-13T03:23:35;6.33;;;1.80;;
1404;SDS011;697;51.114;6.542;2023-07-13T03:26:04;9.10;;;2.80;;
1404;SDS011;697;51.114;6.542;2023-07-13T03:28:32;4.83;;;2.30;;
1404;SDS011;697;51.114;6.542;2023-07-13T03:31:00;6.53;;;1.80;;
1404;SDS011;697;51.114;6.542;2023-07-13T03:33:28;4.97;;;1.93;;
1404;SDS011;697;51.114;6.542;2023-07-13T03:35:55;9.67;;;2.20;;
1404;SDS011;697;51.114;6.542;2023-07-13T03:38:23;8.07;;;2.23;;
1404;SDS011;697;51.114;6.542;2023-07-13T03:40:51;7.90;;;2.10;;
1404;SDS011;697;51.114;6.542;2023-07-13T03:43:17;8.67;;;1.67;;
1404;SDS011;697;51.114;6.542;2023-07-13T03:45:45;6.83;;;1.60;;
1404;SDS011;697;51.114;6.542;2023-07-13T03:48:12;7.10;;;1.57;;
1404;SDS011;697;51.114;6.542;2023-07-13T03:50:39;3.67;;;1.77;;
1404;SDS011;697;51.114;6.542;2023-07-13T03:53:05;6.90;;;1.63;;
1404;SDS011;697;51.114;6.542;2023-07-13T03:55:34;3.03;;;1.77;;
1404;SDS011;697;51.114;6.542;2023-07-13T03:58:06;3.43;;;1.73;;
1404;SDS011;697;51.114;6.542;2023-07-13T04:00:54;6.17;;;1.50;;
1404;SDS011;697;51.114;6.542;2023-07-13T04:03:22;7.07;;;1.80;;
1404;SDS011;697;51.114;6.542;2023-07-13T04:05:49;11.10;;;2.53;;
1404;SDS011;697;51.114;6.542;2023-07-13T04:08:16;8.80;;;2.27;;
1404;SDS011;697;51.114;6.542;2023-07-13T04:10:43;9.00;;;2.13;;
1404;SDS011;697;51.114;6.542;2023-07-13T04:13:10;11.30;;;2.23;;
1404;SDS011;697;51.114;6.542;2023-07-13T04:15:38;12.90;;;2.17;;
1404;SDS011;697;51.114;6.542;2023-07-13T04:18:05;8.37;;;2.20;;
1404;SDS011;697;51.114;6.542;2023-07-13T04:20:32;7.30;;;2.10;;
1404;SDS011;697;51.114;6.542;2023-07-13T04:22:59;5.40;;;2.27;;
1404;SDS011;697;51.114;6.542;2023-07-13T04:25:25;4.70;;;1.60;;
1404;SDS011;697;51.114;6.542;2023-07-13T04:27:53;4.63;;;2.07;;
1404;SDS011;697;51.114;6.542;2023-07-13T04:30:20;6.60;;;2.47;;
1404;SDS011;697;51.114;6.542;2023-07-13T04:32:49;5.97;;;1.73;;
1404;SDS011;697;51.114;6.542;2023-07-13T04:35:17;13.03;;;1.90;;
1404;SDS011;697;51.114;6.542;2023-07-13T04:37:45;15.40;;;2.63;;
1404;SDS011;697;51.114;6.542;2023-07-13T04:40:12;6.40;;;2.20;;
1404;SDS011;697;51.114;6.542;2023-07-13T04:42:39;10.10;;;2.40;;
1404;SDS011;697;51.114;6.542;2023-07-13T04:45:06;4.50;;;1.67;;
1404;SDS011;697;51.114;6.542;2023-07-13T04:47:33;8.13;;;2.13;;
1404;SDS011;697;51.114;6.542;2023-07-13T04:50:01;6.27;;;2.00;;
1404;SDS011;697;51.114;6.542;2023-07-13T04:52:28;4.90;;;2.17;;
1404;SDS011;697;51.114;6.542;2023-07-13T04:54:55;9.27;;;2.33;;
1404;SDS011;697;51.114;6.542;2023-07-13T04:57:21;10.90;;;2.27;;
1404;SDS011;697;51.114;6.542;2023-07-13T04:59:48;13.73;;;2.60;;
1404;SDS011;697;51.114;6.542;2023-07-13T05:02:15;6.43;;;2.13;;
1404;SDS011;697;51.114;6.542;2023-07-13T05:04:42;8.13;;;2.00;;
1404;SDS011;697;51.114;6.542;2023-07-13T05:07:10;8.67;;;2.50;;
1404;SDS011;697;51.114;6.542;2023-07-13T05:09:36;6.87;;;2.20;;
1404;SDS011;697;51.114;6.542;2023-07-13T05:12:05;8.13;;;2.63;;
1404;SDS011;697;51.114;6.542;2023-07-13T05:14:32;6.50;;;2.30;;
1404;SDS011;697;51.114;6.542;2023-07-13T05:16:59;11.53;;;2.67;;
1404;SDS011;697;51.114;6.542;2023-07-13T05:19:26;5.77;;;1.60;;
1404;SDS011;697;51.114;6.542;2023-07-13T05:21:53;11.00;;;2.83;;
1404;SDS011;697;51.114;6.542;2023-07-13T05:24:21;6.90;;;2.07;;
1404;SDS011;697;51.114;6.542;2023-07-13T05:26:47;7.27;;;2.70;;
1404;SDS011;697;51.114;6.542;2023-07-13T05:29:14;5.20;;;2.27;;
1404;SDS011;697;51.114;6.542;2023-07-13T05:31:41;11.53;;;2.20;;
1404;SDS011;697;51.114;6.542;2023-07-13T05:34:07;8.13;;;2.30;;
1404;SDS011;697;51.114;6.542;2023-07-13T05:36:34;8.40;;;2.73;;
1404;SDS011;697;51.114;6.542;2023-07-13T05:39:02;5.57;;;2.10;;
1404;SDS011;697;51.114;6.542;2023-07-13T05:41:30;5.43;;;1.80;;
1404;SDS011;697;51.114;6.542;2023-07-13T05:43:57;8.90;;;2.13;;
1404;SDS011;697;51.114;6.542;2023-07-13T05:46:24;4.00;;;1.77;;
1404;SDS011;697;51.114;6.542;2023-07-13T05:48:51;11.50;;;2.47;;
1404;SDS011;697;51.114;6.542;2023-07-13T05:51:17;7.67;;;2.33;;
1404;SDS011;697;51.114;6.542;2023-07-13T05:53:44;9.70;;;2.50;;
1404;SDS011;697;51.114;6.542;2023-07-13T05:56:11;10.50;;;2.50;;
1404;SDS011;697;51.114;6.542;2023-07-13T05:58:39;10.07;;;3.10;;
1404;SDS011;697;51.114;6.542;2023-07-13T06:01:06;11.40;;;2.77;;
1404;SDS011;697;51.114;6.542;2023-07-13T06:03:35;6.00;;;2.50;;
1404;SDS011;697;51.114;6.542;2023-07-13T06:06:03;7.37;;;2.90;;
1404;SDS011;697;51.114;6.542;2023-07-13T06:08:30;10.03;;;2.00;;
1404;SDS011;697;51.114;6.542;2023-07-13T06:11:01;8.03;;;2.90;;
1404;SDS011;697;51.114;6.542;2023-07-13T06:13:29;6.90;;;2.40;;
1404;SDS011;697;51.114;6.542;2023-07-13T06:15:57;5.73;;;2.57;;
1404;SDS011;697;51.114;6.542;2023-07-13T06:18:24;11.10;;;3.60;;
1404;SDS011;697;51.114;6.542;2023-07-13T06:20:50;13.53;;;4.10;;
1404;SDS011;697;51.114;6.542;2023-07-13T06:23:17;6.60;;;2.43;;
1404;SDS011;697;51.114;6.542;2023-07-13T06:25:44;9.33;;;3.00;;
1404;SDS011;697;51.114;6.542;2023-07-13T06:28:10;9.40;;;2.83;;
1404;SDS011;697;51.114;6.542;2023-07-13T06:30:37;7.33;;;2.70;;
1404;SDS011;697;51.114;6.542;2023-07-13T06:33:06;4.87;;;2.27;;
1404;SDS011;697;51.114;6.542;2023-07-13T06:35:33;5.50;;;2.50;;
1404;SDS011;697;51.114;6.542;2023-07-13T06:37:59;9.33;;;2.83;;
1404;SDS011;697;51.114;6.542;2023-07-13T06:40:27;6.33;;;3.00;;
1404;SDS011;697;51.114;6.542;2023-07-13T06:42:55;10.47;;;2.87;;
1404;SDS011;697;51.114;6.542;2023-07-13T06:45:22;7.33;;;3.03;;
1404;SDS011;697;51.114;6.542;2023-07-13T06:47:49;6.27;;;2.07;;
1404;SDS011;697;51.114;6.542;2023-07-13T06:50:17;10.43;;;3.07;;
1404;SDS011;697;51.114;6.542;2023-07-13T06:52:43;7.30;;;3.17;;
1404;SDS011;697;51.114;6.542;2023-07-13T06:55:10;11.90;;;2.87;;
1404;SDS011;697;51.114;6.542;2023-07-13T06:57:37;7.67;;;3.23;;
1404;SDS011;697;51.114;6.542;2023-07-13T07:00:04;6.30;;;2.93;;
1404;SDS011;697;51.114;6.542;2023-07-13T07:02:31;8.40;;;3.43;;
1404;SDS011;697;51.114;6.542;2023-07-13T07:04:58;7.63;;;3.13;;
1404;SDS011;697;51.114;6.542;2023-07-13T07:07:27;8.70;;;3.30;;
1404;SDS011;697;51.114;6.542;2023-07-13T07:09:53;8.40;;;2.43;;
1404;SDS011;697;51.114;6.542;2023-07-13T07:12:20;6.50;;;2.93;;
1404;SDS011;697;51.114;6.542;2023-07-13T07:14:47;10.30;;;3.03;;
1404;SDS011;697;51.114;6.542;2023-07-13T07:17:13;7.27;;;2.63;;
1404;SDS011;697;51.114;6.542;2023-07-13T07:19:40;9.27;;;3.17;;
1404;SDS011;697;51.114;6.542;2023-07-13T07:22:07;5.83;;;2.43;;
1404;SDS011;697;51.114;6.542;2023-07-13T07:24:35;14.37;;;2.97;;
1404;SDS011;697;51.114;6.542;2023-07-13T07:27:01;7.97;;;2.67;;
1404;SDS011;697;51.114;6.542;2023-07-13T07:29:28;6.90;;;3.00;;
1404;SDS011;697;51.114;6.542;2023-07-13T07:31:55;12.40;;;4.20;;
1404;SDS011;697;51.114;6.542;2023-07-13T07:34:22;10.77;;;3.13;;
1404;SDS011;697;51.114;6.542;2023-07-13T07:36:49;12.37;;;2.53;;
1404;SDS011;697;51.114;6.542;2023-07-13T07:39:15;7.03;;;2.60;;
1404;SDS011;697;51.114;6.542;2023-07-13T07:41:43;10.30;;;2.90;;
1404;SDS011;697;51.114;6.542;2023-07-13T07:44:10;7.87;;;3.00;;
1404;SDS011;697;51.114;6.542;2023-07-13T07:46:37;8.03;;;3.33;;
1404;SDS011;697;51.114;6.542;2023-07-13T07:49:06;6.53;;;2.83;;
1404;SDS011;697;51.114;6.542;2023-07-13T07:51:32;8.60;;;2.80;;
1404;SDS011;697;51.114;6.542;2023-07-13T07:53:59;11.50;;;3.10;;
1404;SDS011;697;51.114;6.542;2023-07-13T07:56:26;12.97;;;3.10;;
1404;SDS011;697;51.114;6.542;2023-07-13T07:58:54;7.57;;;2.90;;
1404;SDS011;697;51.114;6.542;2023-07-13T08:01:20;9.57;;;3.23;;
1404;SDS011;697;51.114;6.542;2023-07-13T08:03:48;10.53;;;3.40;;
1404;SDS011;697;51.114;6.542;2023-07-13T08:06:14;8.23;;;3.40;;
1404;SDS011;697;51.114;6.542;2023-07-13T08:08:41;10.80;;;3.13;;
1404;SDS011;697;51.114;6.542;2023-07-13T08:11:08;8.67;;;3.80;;
1404;SDS011;697;51.114;6.542;2023-07-13T08:13:36;11.10;;;3.40;;
1404;SDS011;697;51.114;6.542;2023-07-13T08:16:05;9.10;;;3.30;;
1404;SDS011;697;51.114;6.542;2023-07-13T08:18:32;4.23;;;2.90;;
1404;SDS011;697;51.114;6.542;2023-07-13T08:21:02;9.43;;;3.47;;
1404;SDS011;697;51.114;6.542;2023-07-13T08:23:30;10.33;;;3.87;;
1404;SDS011;697;51.114;6.542;2023-07-13T08:25:57;10.40;;;2.87;;
1404;SDS011;697;51.114;6.542;2023-07-13T08:28:26;7.37;;;3.20;;
1404;SDS011;697;51.114;6.542;2023-07-13T08:30:53;10.70;;;3.30;;
1404;SDS011;697;51.114;6.542;2023-07-13T08:33:21;6.37;;;3.00;;
1404;SDS011;697;51.114;6.542;2023-07-13T08:35:50;4.50;;;2.50;;
1404;SDS011;697;51.114;6.542;2023-07-13T08:38:17;9.97;;;2.97;;
1404;SDS011;697;51.114;6.542;2023-07-13T08:40:45;7.23;;;2.90;;
1404;SDS011;697;51.114;6.542;2023-07-13T08:43:18;11.17;;;2.80;;
1404;SDS011;697;51.114;6.542;2023-07-13T08:45:49;6.23;;;3.13;;
1404;SDS011;697;51.114;6.542;2023-07-13T08:48:24;7.40;;;2.87;;
1404;SDS011;697;51.114;6.542;2023-07-13T08:50:55;7.17;;;3.00;;
1404;SDS011;697;51.114;6.542;2023-07-13T08:53:31;6.10;;;2.83;;
1404;SDS011;697;51.114;6.542;2023-07-13T08:56:00;6.13;;;3.47;;
1404;SDS011;697;51.114;6.542;2023-07-13T08:58:28;3.80;;;2.20;;
1404;SDS011;697;51.114;6.542;2023-07-13T09:00:59;6.67;;;2.70;;
1404;SDS011;697;51.114;6.542;2023-07-13T09:03:36;9.73;;;2.43;;
1404;SDS011;697;51.114;6.542;2023-07-13T09:06:06;3.80;;;2.73;;
1404;SDS011;697;51.114;6.542;2023-07-13T09:08:42;8.73;;;2.70;;
1404;SDS011;697;51.114;6.542;2023-07-13T09:11:23;7.43;;;2.30;;
1404;SDS011;697;51.114;6.542;2023-07-13T09:14:03;7.17;;;2.63;;
1404;SDS011;697;51.114;6.542;2023-07-13T09:16:52;8.00;;;2.00;;
1404;SDS011;697;51.114;6.542;2023-07-13T09:19:23;7.50;;;2.10;;
1404;SDS011;697;51.114;6.542;2023-07-13T09:21:54;8.70;;;2.13;;
1404;SDS011;697;51.114;6.542;2023-07-13T09:24:29;7.20;;;2.20;;
1404;SDS011;697;51.114;6.542;2023-07-13T09:27:01;7.23;;;2.03;;
1404;SDS011;697;51.114;6.542;2023-07-13T09:29:37;5.43;;;2.60;;
1404;SDS011;697;51.114;6.542;2023-07-13T09:32:09;6.60;;;2.40;;
1404;SDS011;697;51.114;6.542;2023-07-13T09:34:39;7.13;;;2.27;;
1404;SDS011;697;51.114;6.542;2023-07-13T09:37:06;8.77;;;2.40;;
1404;SDS011;697;51.114;6.542;2023-07-13T09:39:34;5.73;;;2.30;;
1404;SDS011;697;51.114;6.542;2023-07-13T09:42:06;6.33;;;2.10;;
1404;SDS011;697;51.114;6.542;2023-07-13T09:44:44;3.87;;;1.73;;
1404;SDS011;697;51.114;6.542;2023-07-13T09:47:19;4.17;;;1.80;;
1404;SDS011;697;51.114;6.542;2023-07-13T09:49:55;10.60;;;3.50;;
1404;SDS011;697;51.114;6.542;2023-07-13T09:52:24;4.67;;;2.07;;
1404;SDS011;697;51.114;6.542;2023-07-13T09:54:52;4.80;;;1.67;;
1404;SDS011;697;51.114;6.542;2023-07-13T09:57:24;7.80;;;2.40;;
1404;SDS011;697;51.114;6.542;2023-07-13T09:59:53;7.80;;;2.80;;
1404;SDS011;697;51.114;6.542;2023-07-13T10:02:24;6.93;;;2.37;;
1404;SDS011;697;51.114;6.542;2023-07-13T10:04:57;5.80;;;2.13;;
1404;SDS011;697;51.114;6.542;2023-07-13T10:07:25;4.83;;;2.33;;
1404;SDS011;697;51.114;6.542;2023-07-13T10:09:52;4.07;;;1.60;;
1404;SDS011;697;51.114;6.542;2023-07-13T10:12:20;5.47;;;1.80;;
1404;SDS011;697;51.114;6.542;2023-07-13T10:14:48;3.07;;;2.13;;
1404;SDS011;697;51.114;6.542;2023-07-13T10:17:19;4.30;;;1.90;;
1404;SDS011;697;51.114;6.542;2023-07-13T10:19:56;7.93;;;1.80;;
1404;SDS011;697;51.114;6.542;2023-07-13T10:22:27;4.10;;;2.20;;
1404;SDS011;697;51.114;6.542;2023-07-13T10:24:59;5.30;;;2.13;;
1404;SDS011;697;51.114;6.542;2023-07-13T10:27:28;4.97;;;2.17;;
1404;SDS011;697;51.114;6.542;2023-07-13T10:30:01;4.30;;;2.03;;
1404;SDS011;697;51.114;6.542;2023-07-13T10:32:33;5.33;;;1.93;;
1404;SDS011;697;51.114;6.542;2023-07-13T10:35:02;6.37;;;2.20;;
1404;SDS011;697;51.114;6.542;2023-07-13T10:37:30;5.13;;;2.40;;
1404;SDS011;697;51.114;6.542;2023-07-13T10:40:05;3.43;;;1.60;;
1404;SDS011;697;51.114;6.542;2023-07-13T10:42:40;3.63;;;2.03;;
1404;SDS011;697;51.114;6.542;2023-07-13T10:45:12;3.70;;;1.83;;
1404;SDS011;697;51.114;6.542;2023-07-13T10:47:41;7.70;;;1.97;;
1404;SDS011;697;51.114;6.542;2023-07-13T10:50:11;4.10;;;2.33;;
1404;SDS011;697;51.114;6.542;2023-07-13T10:52:46;6.50;;;2.20;;
1404;SDS011;697;51.114;6.542;2023-07-13T10:55:34;5.67;;;2.13;;
1404;SDS011;697;51.114;6.542;2023-07-13T10:58:11;3.57;;;1.67;;
1404;SDS011;697;51.114;6.542;2023-07-13T11:00:43;4.73;;;1.73;;
1404;SDS011;697;51.114;6.542;2023-07-13T11:03:15;2.93;;;1.70;;
1404;SDS011;697;51.114;6.542;2023-07-13T11:05:46;4.40;;;2.07;;
1404;SDS011;697;51.114;6.542;2023-07-13T11:08:18;2.90;;;1.73;;
1404;SDS011;697;51.114;6.542;2023-07-13T11:10:51;5.93;;;2.00;;
1404;SDS011;697;51.114;6.542;2023-07-13T11:13:38;4.77;;;2.00;;
1404;SDS011;697;51.114;6.542;2023-07-13T11:22:12;3.90;;;1.77;;
1404;SDS011;697;51.114;6.542;2023-07-13T11:24:48;3.40;;;1.30;;
1404;SDS011;697;51.114;6.542;2023-07-13T11:27:27;4.93;;;1.80;;
1404;SDS011;697;51.114;6.542;2023-07-13T11:32:51;3.30;;;1.77;;
1404;SDS011;697;51.114;6.542;2023-07-13T11:35:31;3.83;;;1.57;;
1404;SDS011;697;51.114;6.542;2023-07-13T11:38:04;2.80;;;1.40;;
1404;SDS011;697;51.114;6.542;2023-07-13T11:40:41;4.53;;;2.10;;
1404;SDS011;697;51.114;6.542;2023-07-13T11:43:11;5.13;;;2.10;;
1404;SDS011;697;51.114;6.542;2023-07-13T11:45:40;4.63;;;1.50;;
1404;SDS011;697;51.114;6.542;2023-07-13T11:50:51;3.73;;;1.37;;
1404;SDS011;697;51.114;6.542;2023-07-13T11:53:25;2.83;;;1.53;;
1404;SDS011;697;51.114;6.542;2023-07-13T11:55:53;3.63;;;1.50;;
1404;SDS011;697;51.114;6.542;2023-07-13T11:58:21;6.17;;;1.93;;
1404;SDS011;697;51.114;6.542;2023-07-13T12:00:50;4.07;;;1.90;;
1404;SDS011;697;51.114;6.542;2023-07-13T12:03:20;6.70;;;1.67;;
1404;SDS011;697;51.114;6.542;2023-07-13T12:05:59;5.50;;;1.83;;
1404;SDS011;697;51.114;6.542;2023-07-13T12:08:28;7.87;;;1.60;;
1404;SDS011;697;51.114;6.542;2023-07-13T12:10:56;2.53;;;1.20;;
1404;SDS011;697;51.114;6.542;2023-07-13T12:13:27;4.00;;;1.57;;
1404;SDS011;697;51.114;6.542;2023-07-13T12:15:55;5.67;;;1.80;;
1404;SDS011;697;51.114;6.542;2023-07-13T12:18:23;4.13;;;1.43;;
1404;SDS011;697;51.114;6.542;2023-07-13T12:20:58;3.50;;;1.20;;
1404;SDS011;697;51.114;6.542;2023-07-13T12:23:28;3.67;;;1.40;;
1404;SDS011;697;51.114;6.542;2023-07-13T12:25:58;5.00;;;1.67;;
1404;SDS011;697;51.114;6.542;2023-07-13T12:28:32;8.93;;;2.10;;
1404;SDS011;697;51.114;6.542;2023-07-13T12:31:02;3.00;;;1.67;;
1404;SDS011;697;51.114;6.542;2023-07-13T12:33:31;3.77;;;1.63;;
1404;SDS011;697;51.114;6.542;2023-07-13T12:35:59;3.63;;;1.77;;
1404;SDS011;697;51.114;6.542;2023-07-13T12:38:28;2.93;;;1.57;;
1404;SDS011;697;51.114;6.542;2023-07-13T12:40:57;8.87;;;1.60;;
1404;SDS011;697;51.114;6.542;2023-07-13T12:43:25;5.37;;;1.80;;
1404;SDS011;697;51.114;6.542;2023-07-13T12:45:56;3.70;;;1.63;;
1404;SDS011;697;51.114;6.542;2023-07-13T12:48:24;3.90;;;1.50;;
1404;SDS011;697;51.114;6.542;2023-07-13T12:50:51;3.00;;;1.37;;
1404;SDS011;697;51.114;6.542;2023-07-13T12:53:21;3.67;;;1.50;;
1404;SDS011;697;51.114;6.542;2023-07-13T12:55:52;3.43;;;1.60;;
1404;SDS011;697;51.114;6.542;2023-07-13T12:58:21;3.00;;;1.50;;
1404;SDS011;697;51.114;6.542;2023-07-13T13:00:53;5.27;;;1.83;;
1404;SDS011;697;51.114;6.542;2023-07-13T13:03:23;2.77;;;1.63;;
1404;SDS011;697;51.114;6.542;2023-07-13T13:06:02;5.10;;;1.50;;
1404;SDS011;697;51.114;6.542;2023-07-13T13:08:31;8.97;;;2.17;;
1404;SDS011;697;51.114;6.542;2023-07-13T13:11:00;5.90;;;1.60;;
1404;SDS011;697;51.114;6.542;2023-07-13T13:13:27;4.40;;;1.53;;
1404;SDS011;697;51.114;6.542;2023-07-13T13:15:54;9.23;;;2.33;;
1404;SDS011;697;51.114;6.542;2023-07-13T13:18:22;4.77;;;1.50;;
1404;SDS011;697;51.114;6.542;2023-07-13T13:20:50;6.50;;;1.87;;
1404;SDS011;697;51.114;6.542;2023-07-13T13:23:17;2.40;;;1.10;;
1404;SDS011;697;51.114;6.542;2023-07-13T13:25:45;6.37;;;2.03;;
1404;SDS011;697;51.114;6.542;2023-07-13T13:28:15;4.77;;;1.60;;
1404;SDS011;697;51.114;6.542;2023-07-13T13:30:43;4.20;;;1.73;;
1404;SDS011;697;51.114;6.542;2023-07-13T13:33:11;4.07;;;1.53;;
1404;SDS011;697;51.114;6.542;2023-07-13T13:35:39;2.90;;;1.70;;
1404;SDS011;697;51.114;6.542;2023-07-13T13:38:09;3.57;;;1.83;;
1404;SDS011;697;51.114;6.542;2023-07-13T13:40:39;3.87;;;1.60;;
1404;SDS011;697;51.114;6.542;2023-07-13T13:43:11;3.80;;;1.60;;
1404;SDS011;697;51.114;6.542;2023-07-13T13:45:42;5.10;;;1.60;;
1404;SDS011;697;51.114;6.542;2023-07-13T13:48:13;5.77;;;1.93;;
1404;SDS011;697;51.114;6.542;2023-07-13T13:50:41;4.07;;;1.90;;
1404;SDS011;697;51.114;6.542;2023-07-13T13:53:09;2.80;;;1.60;;
1404;SDS011;697;51.114;6.542;2023-07-13T13:55:38;3.70;;;1.67;;
1404;SDS011;697;51.114;6.542;2023-07-13T13:58:06;3.73;;;1.70;;
1404;SDS011;697;51.114;6.542;2023-07-13T14:00:35;6.20;;;1.87;;
1404;SDS011;697;51.114;6.542;2023-07-13T14:03:02;5.90;;;1.90;;
1404;SDS011;697;51.114;6.542;2023-07-13T14:05:31;6.80;;;2.07;;
1404;SDS011;697;51.114;6.542;2023-07-13T14:07:58;4.93;;;2.00;;
1404;SDS011;697;51.114;6.542;2023-07-13T14:10:25;4.17;;;1.80;;
1404;SDS011;697;51.114;6.542;2023-07-13T14:12:53;8.20;;;2.20;;
1404;SDS011;697;51.114;6.542;2023-07-13T14:15:22;6.77;;;1.77;;
1404;SDS011;697;51.114;6.542;2023-07-13T14:17:52;7.00;;;2.10;;
1404;SDS011;697;51.114;6.542;2023-07-13T14:20:20;4.00;;;2.23;;
1404;SDS011;697;51.114;6.542;2023-07-13T14:22:48;4.40;;;1.67;;
1404;SDS011;697;51.114;6.542;2023-07-13T14:25:15;5.27;;;1.83;;
1404;SDS011;697;51.114;6.542;2023-07-13T14:27:44;7.30;;;2.57;;
1404;SDS011;697;51.114;6.542;2023-07-13T14:30:13;6.10;;;1.83;;
1404;SDS011;697;51.114;6.542;2023-07-13T14:32:40;5.70;;;2.00;;
1404;SDS011;697;51.114;6.542;2023-07-13T14:35:09;5.23;;;2.00;;
1404;SDS011;697;51.114;6.542;2023-07-13T14:37:37;2.73;;;1.50;;
1404;SDS011;697;51.114;6.542;2023-07-13T14:40:11;2.00;;;1.40;;
1404;SDS011;697;51.114;6.542;2023-07-13T14:42:39;2.77;;;1.43;;
1404;SDS011;697;51.114;6.542;2023-07-13T14:45:11;3.30;;;1.43;;
1404;SDS011;697;51.114;6.542;2023-07-13T14:47:39;3.03;;;1.53;;
1404;SDS011;697;51.114;6.542;2023-07-13T14:50:12;9.90;;;2.00;;
1404;SDS011;697;51.114;6.542;2023-07-13T14:52:41;4.73;;;1.67;;
1404;SDS011;697;51.114;6.542;2023-07-13T14:55:09;2.00;;;1.43;;
1404;SDS011;697;51.114;6.542;2023-07-13T14:57:37;3.53;;;1.83;;
1404;SDS011;697;51.114;6.542;2023-07-13T15:00:04;2.47;;;1.60;;
1404;SDS011;697;51.114;6.542;2023-07-13T15:02:38;4.67;;;1.60;;
1404;SDS011;697;51.114;6.542;2023-07-13T15:05:09;9.50;;;2.20;;
1404;SDS011;697;51.114;6.542;2023-07-13T15:07:42;5.03;;;1.77;;
1404;SDS011;697;51.114;6.542;2023-07-13T15:10:12;2.80;;;1.80;;
1404;SDS011;697;51.114;6.542;2023-07-13T15:12:40;6.17;;;2.30;;
1404;SDS011;697;51.114;6.542;2023-07-13T15:15:07;4.67;;;2.10;;
1404;SDS011;697;51.114;6.542;2023-07-13T15:17:35;5.17;;;1.90;;
1404;SDS011;697;51.114;6.542;2023-07-13T15:20:04;3.90;;;2.17;;
1404;SDS011;697;51.114;6.542;2023-07-13T15:22:39;6.50;;;2.47;;
1404;SDS011;697;51.114;6.542;2023-07-13T15:25:07;2.40;;;2.00;;
1404;SDS011;697;51.114;6.542;2023-07-13T15:27:39;5.00;;;2.07;;
1404;SDS011;697;51.114;6.542;2023-07-13T15:30:06;5.40;;;2.13;;
1404;SDS011;697;51.114;6.542;2023-07-13T15:32:34;5.27;;;2.37;;
1404;SDS011;697;51.114;6.542;2023-07-13T15:35:00;3.40;;;1.73;;
1404;SDS011;697;51.114;6.542;2023-07-13T15:37:27;3.17;;;2.00;;
1404;SDS011;697;51.114;6.542;2023-07-13T15:39:55;3.17;;;1.70;;
1404;SDS011;697;51.114;6.542;2023-07-13T15:42:22;3.67;;;1.70;;
1404;SDS011;697;51.114;6.542;2023-07-13T15:44:49;4.97;;;1.63;;
1404;SDS011;697;51.114;6.542;2023-07-13T15:47:16;2.80;;;1.60;;
1404;SDS011;697;51.114;6.542;2023-07-13T15:49:43;2.13;;;1.70;;